createdAt,value
2023-03-20T00:01:21.518Z,95917.78
2023-03-20T00:06:27.315Z,95914.22
2023-03-20T00:11:31.433Z,95924.03
2023-03-20T00:16:36.608Z,95922.06
2023-03-20T00:21:43.610Z,95922.84
2023-03-20T00:26:46.679Z,95925.94
2023-03-20T00:31:57.591Z,95933.00
2023-03-20T00:37:03.820Z,95922.88
2023-03-20T00:42:07.321Z,95926.38
2023-03-20T00:47:19.715Z,95922.50
2023-03-20T00:52:22.878Z,95932.66
2023-03-20T00:57:36.241Z,95929.16
2023-03-20T01:02:38.006Z,95932.28
2023-03-20T01:07:44.578Z,95929.56
2023-03-20T01:12:49.888Z,95931.50
2023-03-20T01:17:53.071Z,95915.50
2023-03-20T01:22:57.193Z,95911.59
2023-03-20T01:27:58.785Z,95915.53
2023-03-20T01:33:23.972Z,95907.69
2023-03-20T01:38:29.357Z,95915.91
2023-03-20T01:43:35.904Z,95907.72
2023-03-20T01:48:49.748Z,95914.34
2023-03-20T01:54:07.184Z,95907.69
2023-03-20T01:59:17.263Z,95909.63
2023-03-20T02:04:28.465Z,95918.25
2023-03-20T02:09:37.416Z,95925.66
2023-03-20T02:14:45.747Z,95929.56
2023-03-20T02:20:21.683Z,95930.72
2023-03-20T02:25:58.750Z,95935.00
2023-03-20T02:31:14.926Z,95930.28
2023-03-20T02:36:33.920Z,95930.25
2023-03-20T02:41:43.807Z,95923.63
2023-03-20T02:47:01.284Z,95931.00
2023-03-20T02:52:27.538Z,95933.72
2023-03-20T02:57:56.001Z,95931.78
2023-03-20T03:03:06.464Z,95939.97
2023-03-20T03:08:13.829Z,95939.59
2023-03-20T03:13:27.057Z,95936.09
2023-03-20T03:18:30.543Z,95947.03
2023-03-20T03:23:40.116Z,95954.03
2023-03-20T03:28:48.387Z,95962.56
2023-03-20T03:33:55.451Z,95957.47
2023-03-20T03:39:07.364Z,95962.16
2023-03-20T03:44:27.026Z,95956.66
2023-03-20T03:49:42.787Z,95953.94
2023-03-20T03:54:46.829Z,95954.34
2023-03-20T04:00:06.768Z,95958.25
2023-03-20T04:05:17.343Z,95961.75
2023-03-20T04:10:21.584Z,95958.66
2023-03-20T04:15:32.632Z,95970.72
2023-03-20T04:20:34.352Z,95973.09
2023-03-20T04:25:39.439Z,95974.63
2023-03-20T04:30:41.100Z,95974.63
2023-03-20T04:36:20.853Z,95987.50
2023-03-20T04:41:26.639Z,95974.25
2023-03-20T04:46:31.723Z,95966.44
2023-03-20T04:51:39.461Z,95973.13
2023-03-20T04:56:41.280Z,95974.28
2023-03-20T05:01:56.907Z,95981.72
2023-03-20T05:06:58.679Z,95993.81
2023-03-20T05:12:09.616Z,95979.03
2023-03-20T05:17:30.152Z,95979.78
2023-03-20T05:22:53.282Z,95992.66
2023-03-20T05:28:23.390Z,95993.47
2023-03-20T05:33:45.162Z,95997.75
2023-03-20T05:39:01.036Z,96005.16
2023-03-20T05:44:27.929Z,96011.03
2023-03-20T05:49:49.724Z,96012.56
2023-03-20T05:55:12.053Z,96018.44
2023-03-20T06:00:29.592Z,96018.84
2023-03-20T06:05:50.585Z,96029.78
2023-03-20T06:10:53.779Z,96043.44
2023-03-20T06:15:57.768Z,96034.84
2023-03-20T06:20:59.490Z,96028.19
2023-03-20T06:26:03.969Z,96034.44
2023-03-20T06:31:18.093Z,96037.16
2023-03-20T06:36:20.624Z,96043.09
2023-03-20T06:41:34.389Z,96046.22
2023-03-20T06:46:40.478Z,96046.63
2023-03-20T06:51:46.448Z,96045.09
2023-03-20T06:56:49.924Z,96047.41
2023-03-20T07:01:52.703Z,96047.03
2023-03-20T07:06:57.285Z,96059.53
2023-03-20T07:12:00.058Z,96061.44
2023-03-20T07:17:02.149Z,96072.78
2023-03-20T07:22:08.207Z,96082.56
2023-03-20T07:27:14.666Z,96077.91
2023-03-20T07:32:17.040Z,96071.66
2023-03-20T07:37:24.120Z,96078.72
2023-03-20T07:42:36.981Z,96083.03
2023-03-20T07:48:03.035Z,96082.25
2023-03-20T07:53:12.199Z,96090.47
2023-03-20T07:58:25.755Z,96083.44
2023-03-20T08:03:29.899Z,96079.53
2023-03-20T08:08:31.537Z,96081.88
2023-03-20T08:13:35.728Z,96083.06
2023-03-20T08:18:38.908Z,96080.34
2023-03-20T08:23:40.491Z,96077.19
2023-03-20T08:28:47.987Z,96088.13
2023-03-20T08:33:52.839Z,96075.66
2023-03-20T08:39:04.107Z,96086.59
2023-03-20T08:44:08.226Z,96095.94
2023-03-20T08:49:18.402Z,96087.34
2023-03-20T08:54:24.605Z,96106.50
2023-03-20T08:59:34.530Z,96096.38
2023-03-20T09:04:36.573Z,96105.38
2023-03-20T09:09:48.521Z,96103.84
2023-03-20T09:14:50.085Z,96105.03
2023-03-20T09:19:51.940Z,96106.63
2023-03-20T09:24:53.493Z,96110.53
2023-03-20T09:29:57.324Z,96115.22
2023-03-20T09:35:03.377Z,96114.84
2023-03-20T09:40:07.972Z,96114.84
2023-03-20T09:45:38.668Z,96116.03
2023-03-20T09:50:54.507Z,96105.88
2023-03-20T09:55:57.098Z,96110.97
2023-03-20T10:01:01.013Z,96117.59
2023-03-20T10:06:16.816Z,96115.25
2023-03-20T10:11:36.506Z,96108.63
2023-03-20T10:16:40.404Z,96096.91
2023-03-20T10:21:46.126Z,96098.84
2023-03-20T10:26:55.162Z,96107.88
2023-03-20T10:32:12.147Z,96107.06
2023-03-20T10:37:31.606Z,96099.22
2023-03-20T10:42:41.147Z,96097.25
2023-03-20T10:47:47.468Z,96090.16
2023-03-20T10:52:50.983Z,96082.28
2023-03-20T10:58:08.774Z,96072.84
2023-03-20T11:03:25.241Z,96067.66
2023-03-20T11:08:35.465Z,96068.34
2023-03-20T11:13:44.613Z,96060.06
2023-03-20T11:18:54.938Z,96067.03
2023-03-20T11:23:57.466Z,96068.63
2023-03-20T11:28:59.847Z,96054.47
2023-03-20T11:34:18.729Z,96063.06
2023-03-20T11:39:29.509Z,96068.59
2023-03-20T11:44:36.601Z,96060.78
2023-03-20T11:49:56.827Z,96049.03
2023-03-20T11:55:12.082Z,96054.56
2023-03-20T12:00:21.330Z,96067.88
2023-03-20T12:05:42.186Z,96055.38
2023-03-20T12:10:49.204Z,96056.56
2023-03-20T12:15:59.336Z,96058.88
2023-03-20T12:21:19.652Z,96054.59
2023-03-20T12:26:30.421Z,96039.72
2023-03-20T12:31:45.684Z,96046.38
2023-03-20T12:36:57.524Z,96034.97
2023-03-20T12:42:04.139Z,96032.59
2023-03-20T12:47:43.622Z,96025.53
2023-03-20T12:53:17.068Z,96040.84
2023-03-20T12:58:37.076Z,96032.56
2023-03-20T13:03:48.857Z,96022.72
2023-03-20T13:08:56.977Z,96023.09
2023-03-20T13:14:12.578Z,96017.25
2023-03-20T13:19:36.855Z,96003.53
2023-03-20T13:24:48.224Z,95999.91
2023-03-20T13:30:08.542Z,96008.09
2023-03-20T13:35:35.998Z,95992.41
2023-03-20T13:40:45.421Z,96001.41
2023-03-20T13:45:59.276Z,95997.91
2023-03-20T13:51:35.034Z,95998.72
2023-03-20T13:56:58.669Z,96004.59
2023-03-20T14:02:23.263Z,95999.47
2023-03-20T14:07:39.069Z,95996.00
2023-03-20T14:12:40.662Z,95996.34
2023-03-20T14:17:44.590Z,95990.09
2023-03-20T14:22:50.168Z,95990.13
2023-03-20T14:28:09.801Z,95992.88
2023-03-20T14:33:26.840Z,95993.25
2023-03-20T14:38:54.652Z,95979.94
2023-03-20T14:44:36.548Z,95990.19
2023-03-20T14:50:07.098Z,95985.09
2023-03-20T14:55:30.397Z,95980.75
2023-03-20T15:00:45.872Z,95977.22
2023-03-20T15:05:49.683Z,95963.13
2023-03-20T15:10:57.238Z,95961.19
2023-03-20T15:16:09.794Z,95966.63
2023-03-20T15:21:19.981Z,95961.59
2023-03-20T15:26:25.180Z,95964.34
2023-03-20T15:31:30.420Z,95949.03
2023-03-20T15:36:36.994Z,95953.38
2023-03-20T15:41:39.134Z,95949.06
2023-03-20T15:47:01.313Z,95951.00
2023-03-20T15:52:17.040Z,95945.50
2023-03-20T15:57:31.893Z,95951.44
2023-03-20T16:02:36.094Z,95955.31
2023-03-20T16:07:40.175Z,95959.22
2023-03-20T16:12:49.756Z,95953.75
2023-03-20T16:18:01.075Z,95951.38
2023-03-20T16:23:07.852Z,95956.47
2023-03-20T16:28:13.646Z,95958.03
2023-03-20T16:33:17.566Z,95957.63
2023-03-20T16:38:34.527Z,95955.72
2023-03-20T16:43:43.326Z,95958.84
2023-03-20T16:48:44.810Z,95969.09
2023-03-20T16:53:48.907Z,95965.25
2023-03-20T16:58:50.709Z,95968.38
2023-03-20T17:03:58.242Z,95972.31
2023-03-20T17:09:16.170Z,95976.66
2023-03-20T17:14:17.751Z,95982.94
2023-03-20T17:19:20.447Z,95979.41
2023-03-20T17:24:27.212Z,95988.03
2023-03-20T17:29:28.706Z,95989.56
2023-03-20T17:34:32.752Z,95984.88
2023-03-20T17:39:34.336Z,95989.56
2023-03-20T17:44:35.848Z,95988.06
2023-03-20T17:49:39.388Z,95991.59
2023-03-20T17:54:40.987Z,95997.50
2023-03-20T17:59:42.467Z,96001.00
2023-03-20T18:04:47.616Z,95996.34
2023-03-20T18:09:49.564Z,96003.03
2023-03-20T18:14:51.128Z,96005.03
2023-03-20T18:20:04.986Z,96005.06
2023-03-20T18:25:06.849Z,96013.31
2023-03-20T18:30:22.472Z,96012.16
2023-03-20T18:35:24.059Z,96003.97
2023-03-20T18:40:33.958Z,96003.19
2023-03-20T18:45:35.900Z,96000.06
2023-03-20T18:50:43.393Z,96013.78
2023-03-20T18:55:45.341Z,96022.81
2023-03-20T19:00:50.205Z,96012.22
2023-03-20T19:05:57.510Z,96013.44
2023-03-20T19:10:59.313Z,96013.03
2023-03-20T19:16:03.503Z,96004.84
2023-03-20T19:21:07.732Z,96016.56
2023-03-20T19:26:16.391Z,96015.03
2023-03-20T19:31:24.204Z,96011.53
2023-03-20T19:36:34.296Z,96011.91
2023-03-20T19:41:36.008Z,96009.59
2023-03-20T19:46:42.312Z,96013.91
2023-03-20T19:51:47.210Z,96013.16
2023-03-20T19:56:48.881Z,96013.53
2023-03-20T20:01:56.775Z,96010.00
2023-03-20T20:07:36.260Z,96014.72
2023-03-20T20:12:20.544Z,96012.78
2023-03-20T20:17:29.633Z,96004.56
2023-03-20T20:22:31.677Z,96012.81
2023-03-20T20:27:34.879Z,96010.47
2023-03-20T20:32:41.181Z,96010.88
2023-03-20T20:43:34.841Z,96008.09
2023-03-20T20:48:37.637Z,96009.69
2023-03-20T20:53:39.159Z,95999.91
2023-03-20T20:58:40.753Z,96001.88
2023-03-20T21:03:42.402Z,96003.44
2023-03-20T21:08:44.223Z,96003.84
2023-03-20T21:13:45.922Z,96012.81
2023-03-20T21:18:49.105Z,96005.00
2023-03-20T21:23:51.254Z,96011.63
2023-03-20T21:28:56.625Z,96011.63
2023-03-20T21:34:00.640Z,96012.81
2023-03-20T21:39:09.255Z,96006.97
2023-03-20T21:44:18.078Z,96004.59
2023-03-20T21:50:17.601Z,96002.66
2023-03-20T21:55:14.948Z,96005.78
2023-03-20T22:06:02.476Z,96003.84
2023-03-20T22:17:10.091Z,95990.94
2023-03-20T22:22:20.715Z,96003.84
2023-03-20T22:38:29.265Z,95991.72
2023-03-20T22:48:35.561Z,95996.00
2023-03-20T22:53:37.328Z,95998.38
2023-03-20T22:58:40.348Z,95990.94
2023-03-20T23:03:42.508Z,95987.00
2023-03-20T23:08:50.724Z,95987.00
2023-03-20T23:13:56.496Z,95988.97
2023-03-20T23:19:00.589Z,95981.53
2023-03-20T23:24:02.222Z,95983.91
2023-03-20T23:29:05.984Z,95985.47
2023-03-20T23:34:13.513Z,95977.25
2023-03-20T23:39:15.324Z,95979.59
2023-03-20T23:44:19.562Z,95962.78
2023-03-20T23:49:21.543Z,95967.09
2023-03-20T23:54:23.501Z,95962.03
2023-03-20T23:59:32.083Z,95966.31
